sensor_id;sensor_type;location;lat;lon;timestamp;pressure;altitude;pressure_sealevel;temperature;humidity
42887;BME280;29032;56.028;92.904;2022-09-01T00:02:40;99027.63;;;17.08;66.59
42887;BME280;29032;56.028;92.904;2022-09-01T00:07:42;99024.53;;;17.03;67.04
42887;BME280;29032;56.028;92.904;2022-09-01T00:12:44;99026.16;;;17.07;66.23
42887;BME280;29032;56.028;92.904;2022-09-01T00:17:48;99035.19;;;17.15;66.04
42887;BME280;29032;56.028;92.904;2022-09-01T00:22:50;99031.78;;;17.07;66.27
42887;BME280;29032;56.028;92.904;2022-09-01T00:27:53;99037.41;;;17.07;66.54
42887;BME280;29032;56.028;92.904;2022-09-01T00:32:57;99043.03;;;17.07;67.16
42887;BME280;29032;56.028;92.904;2022-09-01T00:37:59;99044.78;;;16.92;67.38
42887;BME280;29032;56.028;92.904;2022-09-01T00:43:11;99044.22;;;17.03;66.64
42887;BME280;29032;56.028;92.904;2022-09-01T00:48:15;99064.31;;;16.90;68.14
42887;BME280;29032;56.028;92.904;2022-09-01T00:53:17;99065.19;;;16.83;67.87
42887;BME280;29032;56.028;92.904;2022-09-01T00:58:20;99052.72;;;16.67;67.29
42887;BME280;29032;56.028;92.904;2022-09-01T01:03:23;99065.31;;;16.48;66.74
42887;BME280;29032;56.028;92.904;2022-09-01T01:08:28;99058.50;;;16.42;66.88
42887;BME280;29032;56.028;92.904;2022-09-01T01:13:31;99060.25;;;16.37;67.02
42887;BME280;29032;56.028;92.904;2022-09-01T01:18:35;99064.59;;;16.48;66.22
42887;BME280;29032;56.028;92.904;2022-09-01T01:23:44;99059.03;;;16.58;66.11
42887;BME280;29032;56.028;92.904;2022-09-01T01:28:50;99067.25;;;16.46;66.02
42887;BME280;29032;56.028;92.904;2022-09-01T01:33:55;99056.00;;;16.46;66.34
42887;BME280;29032;56.028;92.904;2022-09-01T01:38:58;99058.38;;;16.49;66.37
42887;BME280;29032;56.028;92.904;2022-09-01T01:44:03;99067.44;;;16.58;65.89
42887;BME280;29032;56.028;92.904;2022-09-01T01:49:07;99065.66;;;16.53;65.30
42887;BME280;29032;56.028;92.904;2022-09-01T01:54:09;99072.28;;;16.47;66.40
42887;BME280;29032;56.028;92.904;2022-09-01T01:59:13;99070.34;;;16.50;67.35
42887;BME280;29032;56.028;92.904;2022-09-01T02:04:17;99076.72;;;16.51;66.67
42887;BME280;29032;56.028;92.904;2022-09-01T02:09:20;99080.72;;;16.47;66.69
42887;BME280;29032;56.028;92.904;2022-09-01T02:14:23;99075.38;;;16.52;65.67
42887;BME280;29032;56.028;92.904;2022-09-01T02:19:25;99087.69;;;16.29;65.54
42887;BME280;29032;56.028;92.904;2022-09-01T02:24:28;99082.94;;;16.22;66.86
42887;BME280;29032;56.028;92.904;2022-09-01T02:29:31;99087.56;;;16.27;67.31
42887;BME280;29032;56.028;92.904;2022-09-01T02:34:33;99093.38;;;16.12;67.24
42887;BME280;29032;56.028;92.904;2022-09-01T02:39:36;99098.19;;;16.02;68.33
42887;BME280;29032;56.028;92.904;2022-09-01T02:44:39;99106.50;;;16.09;68.15
42887;BME280;29032;56.028;92.904;2022-09-01T02:49:41;99109.25;;;16.17;68.02
42887;BME280;29032;56.028;92.904;2022-09-01T02:54:44;99106.16;;;16.23;67.01
42887;BME280;29032;56.028;92.904;2022-09-01T02:59:47;99106.16;;;16.23;67.33
42887;BME280;29032;56.028;92.904;2022-09-01T03:04:49;99111.13;;;16.14;67.93
42887;BME280;29032;56.028;92.904;2022-09-01T03:09:51;99108.38;;;15.97;67.87
42887;BME280;29032;56.028;92.904;2022-09-01T03:14:55;99112.06;;;16.00;68.01
42887;BME280;29032;56.028;92.904;2022-09-01T03:19:57;99110.78;;;15.83;67.77
42887;BME280;29032;56.028;92.904;2022-09-01T03:25:00;99110.53;;;15.72;68.12
42887;BME280;29032;56.028;92.904;2022-09-01T03:30:05;99111.44;;;15.74;67.57
42887;BME280;29032;56.028;92.904;2022-09-01T03:35:09;99113.25;;;15.62;67.89
42887;BME280;29032;56.028;92.904;2022-09-01T03:40:12;99110.75;;;15.49;68.20
42887;BME280;29032;56.028;92.904;2022-09-01T03:45:16;99118.41;;;15.31;68.85
42887;BME280;29032;56.028;92.904;2022-09-01T03:50:23;99122.63;;;15.22;69.02
42887;BME280;29032;56.028;92.904;2022-09-01T03:55:27;99122.69;;;15.15;69.19
42887;BME280;29032;56.028;92.904;2022-09-01T04:00:33;99118.56;;;15.16;69.27
42887;BME280;29032;56.028;92.904;2022-09-01T04:05:36;99123.16;;;15.03;69.34
42887;BME280;29032;56.028;92.904;2022-09-01T04:10:43;99136.78;;;15.07;69.62
42887;BME280;29032;56.028;92.904;2022-09-01T04:15:48;99128.19;;;15.05;70.01
42887;BME280;29032;56.028;92.904;2022-09-01T04:20:52;99120.69;;;15.07;71.01
42887;BME280;29032;56.028;92.904;2022-09-01T04:25:57;99126.06;;;15.13;70.94
42887;BME280;29032;56.028;92.904;2022-09-01T04:31:02;99120.78;;;15.17;71.33
42887;BME280;29032;56.028;92.904;2022-09-01T04:36:11;99138.03;;;15.14;71.66
42887;BME280;29032;56.028;92.904;2022-09-01T04:41:14;99133.81;;;15.22;70.93
42887;BME280;29032;56.028;92.904;2022-09-01T04:46:18;99130.69;;;15.18;70.53
42887;BME280;29032;56.028;92.904;2022-09-01T04:51:21;99130.81;;;15.03;71.30
42887;BME280;29032;56.028;92.904;2022-09-01T04:56:26;99117.28;;;14.92;71.27
42887;BME280;29032;56.028;92.904;2022-09-01T05:01:44;99113.00;;;14.91;71.90
42887;BME280;29032;56.028;92.904;2022-09-01T05:06:48;99107.75;;;15.12;69.10
42887;BME280;29032;56.028;92.904;2022-09-01T05:11:52;99104.66;;;14.83;71.74
42887;BME280;29032;56.028;92.904;2022-09-01T05:16:58;99107.19;;;14.89;71.06
42887;BME280;29032;56.028;92.904;2022-09-01T05:22:02;99094.94;;;14.84;71.69
42887;BME280;29032;56.028;92.904;2022-09-01T05:27:06;99094.66;;;14.90;71.71
42887;BME280;29032;56.028;92.904;2022-09-01T05:32:14;99095.91;;;14.96;71.07
42887;BME280;29032;56.028;92.904;2022-09-01T05:37:16;99079.53;;;14.93;71.87
42887;BME280;29032;56.028;92.904;2022-09-01T05:42:18;99084.63;;;15.04;71.13
42887;BME280;29032;56.028;92.904;2022-09-01T05:47:22;99080.78;;;15.17;71.14
42887;BME280;29032;56.028;92.904;2022-09-01T05:52:28;99084.09;;;15.23;71.38
42887;BME280;29032;56.028;92.904;2022-09-01T05:57:33;99081.63;;;15.27;70.75
42887;BME280;29032;56.028;92.904;2022-09-01T06:02:37;99081.31;;;15.40;70.62
42887;BME280;29032;56.028;92.904;2022-09-01T06:07:40;99077.94;;;15.42;70.63
42887;BME280;29032;56.028;92.904;2022-09-01T06:12:42;99069.81;;;15.46;69.55
42887;BME280;29032;56.028;92.904;2022-09-01T06:17:46;99056.13;;;15.84;71.43
42887;BME280;29032;56.028;92.904;2022-09-01T06:22:48;99061.06;;;16.20;69.22
42887;BME280;29032;56.028;92.904;2022-09-01T06:27:51;99055.94;;;16.36;67.54
42887;BME280;29032;56.028;92.904;2022-09-01T06:32:56;99050.81;;;16.42;68.25
42887;BME280;29032;56.028;92.904;2022-09-01T06:37:58;99039.91;;;16.46;69.22
42887;BME280;29032;56.028;92.904;2022-09-01T06:43:21;99025.53;;;16.52;68.98
42887;BME280;29032;56.028;92.904;2022-09-01T06:48:27;99013.09;;;16.82;68.13
42887;BME280;29032;56.028;92.904;2022-09-01T06:53:35;99016.38;;;16.88;67.05
42887;BME280;29032;56.028;92.904;2022-09-01T06:58:40;99011.50;;;16.98;67.96
42887;BME280;29032;56.028;92.904;2022-09-01T07:03:46;99010.47;;;17.23;68.78
42887;BME280;29032;56.028;92.904;2022-09-01T07:08:58;98988.56;;;17.50;67.53
42887;BME280;29032;56.028;92.904;2022-09-01T07:14:05;99001.59;;;17.55;67.37
42887;BME280;29032;56.028;92.904;2022-09-01T07:19:10;98997.16;;;17.52;67.74
42887;BME280;29032;56.028;92.904;2022-09-01T07:24:13;98995.06;;;17.63;68.06
42887;BME280;29032;56.028;92.904;2022-09-01T07:29:28;98978.56;;;17.78;67.40
42887;BME280;29032;56.028;92.904;2022-09-01T07:34:33;98963.19;;;17.79;67.37
42887;BME280;29032;56.028;92.904;2022-09-01T07:39:37;98963.44;;;17.93;67.35
42887;BME280;29032;56.028;92.904;2022-09-01T07:44:59;98955.38;;;17.99;66.71
42887;BME280;29032;56.028;92.904;2022-09-01T07:50:19;98961.31;;;18.03;65.92
42887;BME280;29032;56.028;92.904;2022-09-01T07:55:21;98966.03;;;18.10;67.24
42887;BME280;29032;56.028;92.904;2022-09-01T08:00:24;98957.22;;;18.26;65.59
42887;BME280;29032;56.028;92.904;2022-09-01T08:05:33;98975.94;;;18.52;65.46
42887;BME280;29032;56.028;92.904;2022-09-01T08:10:37;98965.34;;;18.62;66.16
42887;BME280;29032;56.028;92.904;2022-09-01T08:15:40;98976.25;;;18.78;66.02
42887;BME280;29032;56.028;92.904;2022-09-01T08:20:44;98978.50;;;18.91;64.97
42887;BME280;29032;56.028;92.904;2022-09-01T08:26:11;98980.00;;;18.92;64.53
42887;BME280;29032;56.028;92.904;2022-09-01T08:31:17;98975.28;;;19.06;64.46
42887;BME280;29032;56.028;92.904;2022-09-01T08:36:21;98975.50;;;19.20;62.86
42887;BME280;29032;56.028;92.904;2022-09-01T08:41:35;98969.94;;;19.43;62.16
42887;BME280;29032;56.028;92.904;2022-09-01T08:46:43;98958.59;;;19.32;62.35
42887;BME280;29032;56.028;92.904;2022-09-01T08:51:51;98964.75;;;19.40;62.98
42887;BME280;29032;56.028;92.904;2022-09-01T08:57:00;98969.06;;;19.41;63.95
42887;BME280;29032;56.028;92.904;2022-09-01T09:02:43;98964.47;;;19.57;61.94
42887;BME280;29032;56.028;92.904;2022-09-01T09:08:02;98959.44;;;19.56;63.11
42887;BME280;29032;56.028;92.904;2022-09-01T09:13:13;98947.38;;;19.55;61.85
42887;BME280;29032;56.028;92.904;2022-09-01T09:18:28;98943.72;;;19.64;61.99
42887;BME280;29032;56.028;92.904;2022-09-01T09:23:38;98949.03;;;19.70;61.90
42887;BME280;29032;56.028;92.904;2022-09-01T09:28:42;98945.97;;;19.78;63.87
42887;BME280;29032;56.028;92.904;2022-09-01T09:33:44;98945.03;;;20.08;62.00
42887;BME280;29032;56.028;92.904;2022-09-01T09:39:03;98933.69;;;20.55;60.83
42887;BME280;29032;56.028;92.904;2022-09-01T09:44:16;98926.75;;;20.81;58.63
42887;BME280;29032;56.028;92.904;2022-09-01T09:49:21;98938.31;;;20.86;58.04
42887;BME280;29032;56.028;92.904;2022-09-01T09:54:27;98938.31;;;20.86;56.40
42887;BME280;29032;56.028;92.904;2022-09-01T09:59:31;98942.94;;;21.04;58.77
42887;BME280;29032;56.028;92.904;2022-09-01T10:04:36;98937.78;;;21.52;55.25
42887;BME280;29032;56.028;92.904;2022-09-01T10:09:40;98932.03;;;21.50;55.14
42887;BME280;29032;56.028;92.904;2022-09-01T10:14:46;98932.22;;;21.40;58.11
42887;BME280;29032;56.028;92.904;2022-09-01T10:19:54;98924.22;;;21.11;58.65
42887;BME280;29032;56.028;92.904;2022-09-01T10:24:58;98935.38;;;20.83;59.68
42887;BME280;29032;56.028;92.904;2022-09-01T10:30:10;98929.38;;;20.66;59.01
42887;BME280;29032;56.028;92.904;2022-09-01T10:35:15;98932.84;;;20.41;61.63
42887;BME280;29032;56.028;92.904;2022-09-01T10:40:35;98932.13;;;20.40;59.33
42887;BME280;29032;56.028;92.904;2022-09-01T10:45:38;98939.75;;;20.14;61.00
42887;BME280;29032;56.028;92.904;2022-09-01T10:50:40;98932.25;;;20.07;57.97
42887;BME280;29032;56.028;92.904;2022-09-01T10:55:59;98934.94;;;20.17;60.81
42887;BME280;29032;56.028;92.904;2022-09-01T11:01:03;98934.44;;;19.97;59.80
42887;BME280;29032;56.028;92.904;2022-09-01T11:06:06;98929.03;;;19.89;60.91
42887;BME280;29032;56.028;92.904;2022-09-01T11:11:21;98932.38;;;19.86;61.32
42887;BME280;29032;56.028;92.904;2022-09-01T11:16:25;98930.13;;;19.84;59.88
42887;BME280;29032;56.028;92.904;2022-09-01T11:21:29;98931.09;;;19.20;62.44
42887;BME280;29032;56.028;92.904;2022-09-01T11:26:51;98927.34;;;19.06;62.16
42887;BME280;29032;56.028;92.904;2022-09-01T11:31:53;98937.94;;;18.53;63.93
42887;BME280;29032;56.028;92.904;2022-09-01T11:36:58;98936.25;;;18.38;64.19
42887;BME280;29032;56.028;92.904;2022-09-01T11:42:07;98926.81;;;18.24;63.62
42887;BME280;29032;56.028;92.904;2022-09-01T11:47:14;98921.88;;;18.03;64.79
42887;BME280;29032;56.028;92.904;2022-09-01T11:52:18;98928.91;;;18.24;62.32
42887;BME280;29032;56.028;92.904;2022-09-01T11:57:24;98906.13;;;17.79;64.98
42887;BME280;29032;56.028;92.904;2022-09-01T12:02:29;98907.94;;;17.65;65.52
42887;BME280;29032;56.028;92.904;2022-09-01T12:07:39;98917.72;;;17.64;65.06
42887;BME280;29032;56.028;92.904;2022-09-01T12:12:44;98925.47;;;17.53;65.94
42887;BME280;29032;56.028;92.904;2022-09-01T12:17:46;98923.13;;;17.30;66.11
42887;BME280;29032;56.028;92.904;2022-09-01T12:22:48;98917.78;;;17.25;65.44
42887;BME280;29032;56.028;92.904;2022-09-01T12:27:52;98922.38;;;17.20;65.47
42887;BME280;29032;56.028;92.904;2022-09-01T12:32:55;98921.38;;;16.96;64.44
42887;BME280;29032;56.028;92.904;2022-09-01T12:38:15;98913.97;;;16.91;64.79
42887;BME280;29032;56.028;92.904;2022-09-01T12:43:35;98907.31;;;16.77;64.58
42887;BME280;29032;56.028;92.904;2022-09-01T12:48:38;98908.31;;;16.53;65.46
42887;BME280;29032;56.028;92.904;2022-09-01T12:53:50;98909.03;;;16.53;66.01
42887;BME280;29032;56.028;92.904;2022-09-01T12:59:07;98913.75;;;16.51;65.94
42887;BME280;29032;56.028;92.904;2022-09-01T13:04:28;98905.75;;;16.37;65.99
42887;BME280;29032;56.028;92.904;2022-09-01T13:09:30;98894.88;;;16.05;66.83
42887;BME280;29032;56.028;92.904;2022-09-01T13:14:34;98897.84;;;16.07;66.90
42887;BME280;29032;56.028;92.904;2022-09-01T13:19:36;98898.56;;;15.98;66.76
42887;BME280;29032;56.028;92.904;2022-09-01T13:24:38;98912.59;;;15.98;67.83
42887;BME280;29032;56.028;92.904;2022-09-01T13:29:42;98895.34;;;16.11;68.09
42887;BME280;29032;56.028;92.904;2022-09-01T13:34:44;98889.28;;;16.05;67.87
42887;BME280;29032;56.028;92.904;2022-09-01T13:39:46;98919.69;;;15.99;67.39
42887;BME280;29032;56.028;92.904;2022-09-01T13:44:49;98925.59;;;16.03;67.45
42887;BME280;29032;56.028;92.904;2022-09-01T13:49:52;98934.72;;;15.93;67.24
42887;BME280;29032;56.028;92.904;2022-09-01T13:54:54;99027.47;;;15.86;67.66
42887;BME280;29032;56.028;92.904;2022-09-01T13:59:57;99016.13;;;15.93;67.64
42887;BME280;29032;56.028;92.904;2022-09-01T14:04:59;98952.03;;;16.00;68.00
42887;BME280;29032;56.028;92.904;2022-09-01T14:10:02;98973.13;;;16.18;67.32
42887;BME280;29032;56.028;92.904;2022-09-01T14:15:07;98948.44;;;16.26;68.17
42887;BME280;29032;56.028;92.904;2022-09-01T14:20:12;98941.81;;;16.31;68.39
42887;BME280;29032;56.028;92.904;2022-09-01T14:25:15;98899.69;;;16.31;68.03
42887;BME280;29032;56.028;92.904;2022-09-01T14:30:22;98898.50;;;16.34;68.17
42887;BME280;29032;56.028;92.904;2022-09-01T14:35:25;98902.50;;;16.31;67.63
42887;BME280;29032;56.028;92.904;2022-09-01T14:40:28;98894.50;;;16.28;67.79
42887;BME280;29032;56.028;92.904;2022-09-01T14:45:31;98891.41;;;16.33;67.54
42887;BME280;29032;56.028;92.904;2022-09-01T14:50:38;98888.69;;;16.16;67.64
42887;BME280;29032;56.028;92.904;2022-09-01T14:55:40;98879.75;;;15.90;68.73
42887;BME280;29032;56.028;92.904;2022-09-01T15:00:44;98902.00;;;15.79;68.74
42887;BME280;29032;56.028;92.904;2022-09-01T15:05:46;98881.38;;;15.57;70.05
42887;BME280;29032;56.028;92.904;2022-09-01T15:10:48;98874.91;;;15.64;69.87
42887;BME280;29032;56.028;92.904;2022-09-01T15:15:52;98882.63;;;15.73;69.65
42887;BME280;29032;56.028;92.904;2022-09-01T15:20:54;98866.34;;;15.62;69.49
42887;BME280;29032;56.028;92.904;2022-09-01T15:25:56;98871.94;;;15.62;69.45
42887;BME280;29032;56.028;92.904;2022-09-01T15:31:00;98866.34;;;15.62;70.00
42887;BME280;29032;56.028;92.904;2022-09-01T15:36:03;98862.31;;;15.55;70.27
42887;BME280;29032;56.028;92.904;2022-09-01T15:41:05;98863.47;;;15.52;70.07
42887;BME280;29032;56.028;92.904;2022-09-01T15:46:09;98874.69;;;15.52;70.36
42887;BME280;29032;56.028;92.904;2022-09-01T15:51:28;98877.88;;;15.66;70.44
42887;BME280;29032;56.028;92.904;2022-09-01T15:56:30;98858.91;;;15.57;70.33
42887;BME280;29032;56.028;92.904;2022-09-01T16:01:36;98848.66;;;15.69;70.14
42887;BME280;29032;56.028;92.904;2022-09-01T16:06:38;98846.06;;;15.54;70.18
42887;BME280;29032;56.028;92.904;2022-09-01T16:11:41;98855.97;;;15.55;70.21
42887;BME280;29032;56.028;92.904;2022-09-01T16:16:50;98859.41;;;15.63;70.43
42887;BME280;29032;56.028;92.904;2022-09-01T16:22:02;98879.25;;;15.48;70.39
42887;BME280;29032;56.028;92.904;2022-09-01T16:27:07;98936.56;;;15.27;71.73
42887;BME280;29032;56.028;92.904;2022-09-01T16:32:11;98895.47;;;15.22;71.46
42887;BME280;29032;56.028;92.904;2022-09-01T16:37:25;98958.75;;;15.33;71.03
42887;BME280;29032;56.028;92.904;2022-09-01T16:42:34;98954.59;;;15.34;71.08
42887;BME280;29032;56.028;92.904;2022-09-01T16:47:53;98983.84;;;15.58;69.89
42887;BME280;29032;56.028;92.904;2022-09-01T16:53:07;98988.47;;;15.63;70.06
42887;BME280;29032;56.028;92.904;2022-09-01T16:58:18;98969.06;;;15.75;69.84
42887;BME280;29032;56.028;92.904;2022-09-01T17:03:29;98971.44;;;15.78;69.53
42887;BME280;29032;56.028;92.904;2022-09-01T17:08:39;98943.94;;;15.50;70.15
42887;BME280;29032;56.028;92.904;2022-09-01T17:13:48;98977.88;;;15.09;70.30
42887;BME280;29032;56.028;92.904;2022-09-01T17:18:54;98992.47;;;14.91;70.56
42887;BME280;29032;56.028;92.904;2022-09-01T17:24:00;98981.75;;;14.79;71.18
42887;BME280;29032;56.028;92.904;2022-09-01T17:29:09;98970.31;;;14.60;70.41
42887;BME280;29032;56.028;92.904;2022-09-01T17:34:26;98955.03;;;14.36;70.12
42887;BME280;29032;56.028;92.904;2022-09-01T17:39:37;98952.75;;;14.17;72.51
42887;BME280;29032;56.028;92.904;2022-09-01T17:44:47;98933.13;;;14.00;71.73
42887;BME280;29032;56.028;92.904;2022-09-01T17:49:59;98922.72;;;13.93;70.43
42887;BME280;29032;56.028;92.904;2022-09-01T17:55:10;98909.53;;;13.86;70.62
42887;BME280;29032;56.028;92.904;2022-09-01T18:00:20;98905.63;;;13.81;70.66
42887;BME280;29032;56.028;92.904;2022-09-01T18:05:25;98910.50;;;13.81;70.99
42887;BME280;29032;56.028;92.904;2022-09-01T18:10:31;98907.69;;;13.81;70.21
42887;BME280;29032;56.028;92.904;2022-09-01T18:15:42;98907.53;;;13.79;70.45
42887;BME280;29032;56.028;92.904;2022-09-01T18:20:48;98895.25;;;13.66;70.31
42887;BME280;29032;56.028;92.904;2022-09-01T18:25:54;98896.84;;;13.52;70.61
42887;BME280;29032;56.028;92.904;2022-09-01T18:31:00;98875.25;;;13.45;70.70
42887;BME280;29032;56.028;92.904;2022-09-01T18:36:15;98958.72;;;13.56;70.42
42887;BME280;29032;56.028;92.904;2022-09-01T18:41:33;98946.78;;;13.56;70.73
42887;BME280;29032;56.028;92.904;2022-09-01T18:46:42;98985.03;;;13.53;70.55
42887;BME280;29032;56.028;92.904;2022-09-01T18:52:01;98970.25;;;13.60;70.15
42887;BME280;29032;56.028;92.904;2022-09-01T18:57:13;98975.06;;;13.67;70.45
42887;BME280;29032;56.028;92.904;2022-09-01T19:02:34;98951.81;;;13.90;69.97
42887;BME280;29032;56.028;92.904;2022-09-01T19:07:42;98948.91;;;14.05;69.94
42887;BME280;29032;56.028;92.904;2022-09-01T19:12:52;98937.13;;;14.14;69.02
42887;BME280;29032;56.028;92.904;2022-09-01T19:18:10;98932.19;;;14.22;68.80
42887;BME280;29032;56.028;92.904;2022-09-01T19:23:19;98922.63;;;14.25;68.54
42887;BME280;29032;56.028;92.904;2022-09-01T19:28:27;98891.53;;;14.21;69.11
42887;BME280;29032;56.028;92.904;2022-09-01T19:33:38;98887.84;;;14.36;68.81
42887;BME280;29032;56.028;92.904;2022-09-01T19:38:42;98884.38;;;14.28;68.90
42887;BME280;29032;56.028;92.904;2022-09-01T19:43:44;98875.53;;;14.14;69.58
42887;BME280;29032;56.028;92.904;2022-09-01T19:48:51;98878.41;;;14.24;69.35
42887;BME280;29032;56.028;92.904;2022-09-01T19:53:59;98869.44;;;14.25;69.06
42887;BME280;29032;56.028;92.904;2022-09-01T19:59:10;98879.16;;;14.24;68.87
42887;BME280;29032;56.028;92.904;2022-09-01T20:04:29;98879.97;;;14.17;68.92
42887;BME280;29032;56.028;92.904;2022-09-01T20:09:45;98882.59;;;14.15;68.97
42887;BME280;29032;56.028;92.904;2022-09-01T20:15:03;98875.47;;;14.22;69.01
42887;BME280;29032;56.028;92.904;2022-09-01T20:20:10;98878.41;;;14.24;68.91
42887;BME280;29032;56.028;92.904;2022-09-01T20:25:15;98883.28;;;14.23;69.19
42887;BME280;29032;56.028;92.904;2022-09-01T20:30:20;98900.44;;;14.27;68.86
42887;BME280;29032;56.028;92.904;2022-09-01T20:35:28;98904.06;;;14.38;69.51
42887;BME280;29032;56.028;92.904;2022-09-01T20:40:37;98916.72;;;14.39;68.84
42887;BME280;29032;56.028;92.904;2022-09-01T20:45:40;98932.19;;;14.22;69.08
42887;BME280;29032;56.028;92.904;2022-09-01T20:50:48;98961.22;;;14.35;68.67
42887;BME280;29032;56.028;92.904;2022-09-01T20:55:56;98912.97;;;14.44;69.72
42887;BME280;29032;56.028;92.904;2022-09-01T21:01:10;98906.88;;;14.55;69.26
42887;BME280;29032;56.028;92.904;2022-09-01T21:06:18;98904.09;;;14.55;69.89
42887;BME280;29032;56.028;92.904;2022-09-01T21:11:35;98886.63;;;14.64;69.06
42887;BME280;29032;56.028;92.904;2022-09-01T21:16:46;98889.25;;;14.62;69.33
42887;BME280;29032;56.028;92.904;2022-09-01T21:22:04;98867.84;;;14.74;68.73
42887;BME280;29032;56.028;92.904;2022-09-01T21:27:10;98857.22;;;14.73;68.82
42887;BME280;29032;56.028;92.904;2022-09-01T21:32:14;98834.81;;;14.55;69.46
42887;BME280;29032;56.028;92.904;2022-09-01T21:37:17;98815.59;;;14.52;69.92
42887;BME280;29032;56.028;92.904;2022-09-01T21:42:23;98803.56;;;14.59;70.04
42887;BME280;29032;56.028;92.904;2022-09-01T21:47:26;98798.06;;;14.51;69.45
42887;BME280;29032;56.028;92.904;2022-09-01T21:52:29;98803.09;;;14.36;69.97
42887;BME280;29032;56.028;92.904;2022-09-01T21:57:33;98794.09;;;14.37;70.59
42887;BME280;29032;56.028;92.904;2022-09-01T22:02:35;98794.50;;;14.34;70.26
42887;BME280;29032;56.028;92.904;2022-09-01T22:07:39;98800.78;;;14.24;70.62
42887;BME280;29032;56.028;92.904;2022-09-01T22:12:45;98818.50;;;14.27;70.58
42887;BME280;29032;56.028;92.904;2022-09-01T22:17:47;98802.53;;;14.20;70.54
42887;BME280;29032;56.028;92.904;2022-09-01T22:22:49;98804.16;;;14.23;70.87
42887;BME280;29032;56.028;92.904;2022-09-01T22:27:53;98829.09;;;14.28;70.86
42887;BME280;29032;56.028;92.904;2022-09-01T22:32:56;98840.31;;;14.28;70.43
42887;BME280;29032;56.028;92.904;2022-09-01T22:37:58;98843.28;;;14.30;70.68
42887;BME280;29032;56.028;92.904;2022-09-01T22:43:01;98874.50;;;14.44;70.39
42887;BME280;29032;56.028;92.904;2022-09-01T22:48:04;98876.31;;;14.49;70.58
42887;BME280;29032;56.028;92.904;2022-09-01T22:53:06;98863.56;;;14.56;71.03
42887;BME280;29032;56.028;92.904;2022-09-01T22:58:10;98836.19;;;14.64;71.31
42887;BME280;29032;56.028;92.904;2022-09-01T23:03:13;98833.97;;;14.63;70.97
42887;BME280;29032;56.028;92.904;2022-09-01T23:08:16;98833.53;;;14.66;71.31
42887;BME280;29032;56.028;92.904;2022-09-01T23:13:20;98793.00;;;14.67;70.76
42887;BME280;29032;56.028;92.904;2022-09-01T23:18:22;98799.13;;;14.39;71.64
42887;BME280;29032;56.028;92.904;2022-09-01T23:23:24;98791.13;;;14.18;71.98
42887;BME280;29032;56.028;92.904;2022-09-01T23:28:28;98796.81;;;14.10;72.60
42887;BME280;29032;56.028;92.904;2022-09-01T23:33:30;98802.84;;;14.07;72.64
42887;BME280;29032;56.028;92.904;2022-09-01T23:38:33;98777.66;;;14.07;72.38
42887;BME280;29032;56.028;92.904;2022-09-01T23:43:37;98774.25;;;14.08;72.53
42887;BME280;29032;56.028;92.904;2022-09-01T23:48:39;98780.44;;;14.07;72.85
42887;BME280;29032;56.028;92.904;2022-09-01T23:53:41;98772.13;;;14.16;72.74
42887;BME280;29032;56.028;92.904;2022-09-01T23:58:45;98794.94;;;14.30;72.75
